<?xml version="1.0" encoding="UTF-8" standalone="no" ?>
<gpx xmlns="http://www.topografix.com/GPX/1/1" xmlns:xsi="http://www.w3.org/2001/XMLSchema-instance" xsi:schemaLocation="http://www.topografix.com/GPX/1/1 http://www.topografix.com/GPX/1/1/gpx.xsd" version="1.1" creator="VisuGPX - https://www.visugpx.com">
  <metadata>
    <name>Crêtes de conques</name>
    <desc><![CDATA[Randonnée à skis sur les crêtes de Conques au départ du Chiroulet.]]></desc>
  </metadata>
  <wpt lat="42.96218" lon="0.08902">
    <ele>1091.52</ele>
    <name><![CDATA[0000014]]></name>
    <type><![CDATA[Point de départ]]></type>
  </wpt>
  <wpt lat="42.96217" lon="0.08904">
    <ele>1058.13</ele>
    <name><![CDATA[0000015]]></name>
    <desc><![CDATA[<p><br /><h3>Nom: Segment: 1</h3><br />Heure de départ: 02/24/2018 08:59<br/>Heure d'arrivée: 02/24/2018 15:12<br/>Distance: 12km (06:12)<br/>Temps déplacement: 02:49<br/>Vitesse moyenne: 1,93 km/h<br/>Vitesse moyenne mouv.: 4,24 km/h<br/>Vitesse Max.: 24,91 km/h<br/>Altitude minimale: 1058 m<br/>Altitude maximale: 2176 m<br/>Vitesse de montée: 327,4 m/h<br/>Vitesse de descente: -482,3 m/h<br/>Gain d'altitude: 1186 m<br/>Perte d'altitude: -1208 m<br/>Temps de montée: 03:37<br/>Temps de descente: 02:30<br/></p>]]></desc>
    <type><![CDATA[Point d'arrivée]]></type>
  </wpt>
  <trk>
    <name><![CDATA[2018-02-24 08:59]]></name>
    <desc><![CDATA[<p>Heure de départ: 02/24/2018 08:59<br/>Heure d'arrivée: 02/24/2018 15:12<br/>Distance: 12 km (06:12)<br/>Temps déplacement: 02:49<br/>Vitesse moyenne: 1,93 km/h<br/>Vitesse moyenne mouv.: 4,24 km/h<br/>Vitesse Max.: 24,91 km/h<br/>Altitude minimale: 1058 m<br/>Altitude maximale: 2176 m<br/>Vitesse de montée: 323,4 m/h<br/>Vitesse de descente: -458,9 m/h<br/>Gain d'altitude: 1165 m<br/>Perte d'altitude: -1190 m<br/>Temps de montée: 03:36<br/>Temps de descente: 02:35<br/></p><hr align="center" width="480" style="height: 2px; width: 517px"/>]]></desc>
    <trkseg>
      <trkpt lat="42.96218" lon="0.08902">
        <ele>1091.52</ele>
        <time>2018-02-24T07:59:26Z</time>
      </trkpt>
      <trkpt lat="42.96222" lon="0.08926">
        <ele>1080.52</ele>
        <time>2018-02-24T08:01:25Z</time>
      </trkpt>
      <trkpt lat="42.96221" lon="0.08952">
        <ele>1080.82</ele>
        <time>2018-02-24T08:01:41Z</time>
      </trkpt>
      <trkpt lat="42.96204" lon="0.08957">
        <ele>1077.85</ele>
        <time>2018-02-24T08:01:59Z</time>
      </trkpt>
      <trkpt lat="42.96187" lon="0.08947">
        <ele>1073.62</ele>
        <time>2018-02-24T08:02:16Z</time>
      </trkpt>
      <trkpt lat="42.96168" lon="0.08942">
        <ele>1072.52</ele>
        <time>2018-02-24T08:02:31Z</time>
      </trkpt>
      <trkpt lat="42.9615" lon="0.08944">
        <ele>1068.52</ele>
        <time>2018-02-24T08:02:47Z</time>
      </trkpt>
      <trkpt lat="42.96134" lon="0.08959">
        <ele>1066.52</ele>
        <time>2018-02-24T08:03:01Z</time>
      </trkpt>
      <trkpt lat="42.96122" lon="0.08978">
        <ele>1069.52</ele>
        <time>2018-02-24T08:03:14Z</time>
      </trkpt>
      <trkpt lat="42.9611" lon="0.08997">
        <ele>1070.52</ele>
        <time>2018-02-24T08:03:27Z</time>
      </trkpt>
      <trkpt lat="42.96095" lon="0.09012">
        <ele>1070.53</ele>
        <time>2018-02-24T08:03:41Z</time>
      </trkpt>
      <trkpt lat="42.96086" lon="0.09035">
        <ele>1069.43</ele>
        <time>2018-02-24T08:03:59Z</time>
      </trkpt>
      <trkpt lat="42.96078" lon="0.09057">
        <ele>1072.52</ele>
        <time>2018-02-24T08:04:17Z</time>
      </trkpt>
      <trkpt lat="42.96078" lon="0.09082">
        <ele>1075.54</ele>
        <time>2018-02-24T08:11:30Z</time>
      </trkpt>
      <trkpt lat="42.96083" lon="0.09107">
        <ele>1074.61</ele>
        <time>2018-02-24T08:13:27Z</time>
      </trkpt>
      <trkpt lat="42.96087" lon="0.09131">
        <ele>1074.52</ele>
        <time>2018-02-24T08:14:10Z</time>
      </trkpt>
      <trkpt lat="42.96096" lon="0.09152">
        <ele>1072.74</ele>
        <time>2018-02-24T08:14:25Z</time>
      </trkpt>
      <trkpt lat="42.96106" lon="0.09173">
        <ele>1070.52</ele>
        <time>2018-02-24T08:14:42Z</time>
      </trkpt>
      <trkpt lat="42.96113" lon="0.09197">
        <ele>1067.55</ele>
        <time>2018-02-24T08:14:54Z</time>
      </trkpt>
      <trkpt lat="42.96121" lon="0.0922">
        <ele>1066.52</ele>
        <time>2018-02-24T08:15:08Z</time>
      </trkpt>
      <trkpt lat="42.9612" lon="0.09245">
        <ele>1066.5</ele>
        <time>2018-02-24T08:15:27Z</time>
      </trkpt>
      <trkpt lat="42.9612" lon="0.0927">
        <ele>1071.43</ele>
        <time>2018-02-24T08:15:48Z</time>
      </trkpt>
      <trkpt lat="42.96121" lon="0.09296">
        <ele>1075.52</ele>
        <time>2018-02-24T08:16:13Z</time>
      </trkpt>
      <trkpt lat="42.96121" lon="0.09322">
        <ele>1072.76</ele>
        <time>2018-02-24T08:16:59Z</time>
      </trkpt>
      <trkpt lat="42.96124" lon="0.09347">
        <ele>1075.22</ele>
        <time>2018-02-24T08:17:19Z</time>
      </trkpt>
      <trkpt lat="42.96126" lon="0.09372">
        <ele>1080.31</ele>
        <time>2018-02-24T08:17:38Z</time>
      </trkpt>
      <trkpt lat="42.96124" lon="0.09398">
        <ele>1084.49</ele>
        <time>2018-02-24T08:18:02Z</time>
      </trkpt>
      <trkpt lat="42.96125" lon="0.09423">
        <ele>1088.49</ele>
        <time>2018-02-24T08:18:22Z</time>
      </trkpt>
      <trkpt lat="42.96138" lon="0.09442">
        <ele>1089.82</ele>
        <time>2018-02-24T08:18:47Z</time>
      </trkpt>
      <trkpt lat="42.96151" lon="0.0946">
        <ele>1095.22</ele>
        <time>2018-02-24T08:19:14Z</time>
      </trkpt>
      <trkpt lat="42.9615" lon="0.09485">
        <ele>1100.52</ele>
        <time>2018-02-24T08:19:40Z</time>
      </trkpt>
      <trkpt lat="42.96143" lon="0.09508">
        <ele>1104.19</ele>
        <time>2018-02-24T08:21:19Z</time>
      </trkpt>
      <trkpt lat="42.96148" lon="0.09533">
        <ele>1107.31</ele>
        <time>2018-02-24T08:21:48Z</time>
      </trkpt>
      <trkpt lat="42.9615" lon="0.09558">
        <ele>1112.22</ele>
        <time>2018-02-24T08:22:22Z</time>
      </trkpt>
      <trkpt lat="42.96133" lon="0.09566">
        <ele>1109.13</ele>
        <time>2018-02-24T08:22:51Z</time>
      </trkpt>
      <trkpt lat="42.96131" lon="0.09591">
        <ele>1120.51</ele>
        <time>2018-02-24T08:24:01Z</time>
      </trkpt>
      <trkpt lat="42.96129" lon="0.09616">
        <ele>1123.61</ele>
        <time>2018-02-24T08:24:28Z</time>
      </trkpt>
      <trkpt lat="42.96143" lon="0.09633">
        <ele>1123.77</ele>
        <time>2018-02-24T08:24:54Z</time>
      </trkpt>
      <trkpt lat="42.9616" lon="0.09643">
        <ele>1129.49</ele>
        <time>2018-02-24T08:25:15Z</time>
      </trkpt>
      <trkpt lat="42.96172" lon="0.09662">
        <ele>1136.51</ele>
        <time>2018-02-24T08:25:35Z</time>
      </trkpt>
      <trkpt lat="42.96179" lon="0.09685">
        <ele>1140.51</ele>
        <time>2018-02-24T08:25:59Z</time>
      </trkpt>
      <trkpt lat="42.96187" lon="0.09707">
        <ele>1151.19</ele>
        <time>2018-02-24T08:26:24Z</time>
      </trkpt>
      <trkpt lat="42.96196" lon="0.09729">
        <ele>1157.52</ele>
        <time>2018-02-24T08:26:47Z</time>
      </trkpt>
      <trkpt lat="42.96211" lon="0.09745">
        <ele>1162.52</ele>
        <time>2018-02-24T08:27:09Z</time>
      </trkpt>
      <trkpt lat="42.96223" lon="0.09765">
        <ele>1167.51</ele>
        <time>2018-02-24T08:27:31Z</time>
      </trkpt>
      <trkpt lat="42.96233" lon="0.09786">
        <ele>1175.52</ele>
        <time>2018-02-24T08:27:57Z</time>
      </trkpt>
      <trkpt lat="42.96241" lon="0.09809">
        <ele>1176.43</ele>
        <time>2018-02-24T08:28:20Z</time>
      </trkpt>
      <trkpt lat="42.96252" lon="0.09828">
        <ele>1174.61</ele>
        <time>2018-02-24T08:28:44Z</time>
      </trkpt>
      <trkpt lat="42.96265" lon="0.09847">
        <ele>1176.52</ele>
        <time>2018-02-24T08:29:07Z</time>
      </trkpt>
      <trkpt lat="42.96276" lon="0.09867">
        <ele>1178.52</ele>
        <time>2018-02-24T08:29:34Z</time>
      </trkpt>
      <trkpt lat="42.96274" lon="0.09892">
        <ele>1177.55</ele>
        <time>2018-02-24T08:29:59Z</time>
      </trkpt>
      <trkpt lat="42.96263" lon="0.09912">
        <ele>1181.43</ele>
        <time>2018-02-24T08:30:21Z</time>
      </trkpt>
      <trkpt lat="42.96254" lon="0.09934">
        <ele>1183.52</ele>
        <time>2018-02-24T08:30:43Z</time>
      </trkpt>
      <trkpt lat="42.9626" lon="0.09958">
        <ele>1190.4</ele>
        <time>2018-02-24T08:31:11Z</time>
      </trkpt>
      <trkpt lat="42.96258" lon="0.09983">
        <ele>1193.49</ele>
        <time>2018-02-24T08:31:37Z</time>
      </trkpt>
      <trkpt lat="42.96252" lon="0.10007">
        <ele>1200.42</ele>
        <time>2018-02-24T08:32:06Z</time>
      </trkpt>
      <trkpt lat="42.96255" lon="0.10031">
        <ele>1211.72</ele>
        <time>2018-02-24T08:32:48Z</time>
      </trkpt>
      <trkpt lat="42.96273" lon="0.10028">
        <ele>1206.64</ele>
        <time>2018-02-24T08:34:43Z</time>
      </trkpt>
      <trkpt lat="42.96291" lon="0.1003">
        <ele>1200.84</ele>
        <time>2018-02-24T08:35:39Z</time>
      </trkpt>
      <trkpt lat="42.96309" lon="0.10034">
        <ele>1200.85</ele>
        <time>2018-02-24T08:36:10Z</time>
      </trkpt>
      <trkpt lat="42.96327" lon="0.1004">
        <ele>1206.22</ele>
        <time>2018-02-24T08:37:30Z</time>
      </trkpt>
      <trkpt lat="42.96342" lon="0.10055">
        <ele>1213.43</ele>
        <time>2018-02-24T08:38:00Z</time>
      </trkpt>
      <trkpt lat="42.96355" lon="0.10072">
        <ele>1216.51</ele>
        <time>2018-02-24T08:38:28Z</time>
      </trkpt>
      <trkpt lat="42.96369" lon="0.10089">
        <ele>1221.22</ele>
        <time>2018-02-24T08:38:51Z</time>
      </trkpt>
      <trkpt lat="42.96383" lon="0.10105">
        <ele>1230.3</ele>
        <time>2018-02-24T08:39:19Z</time>
      </trkpt>
      <trkpt lat="42.96398" lon="0.10119">
        <ele>1235.22</ele>
        <time>2018-02-24T08:39:44Z</time>
      </trkpt>
      <trkpt lat="42.9641" lon="0.10137">
        <ele>1238.4</ele>
        <time>2018-02-24T08:40:02Z</time>
      </trkpt>
      <trkpt lat="42.9642" lon="0.10158">
        <ele>1239.52</ele>
        <time>2018-02-24T08:40:21Z</time>
      </trkpt>
      <trkpt lat="42.96428" lon="0.10182">
        <ele>1241.83</ele>
        <time>2018-02-24T08:40:45Z</time>
      </trkpt>
      <trkpt lat="42.96429" lon="0.10207">
        <ele>1241.52</ele>
        <time>2018-02-24T08:41:05Z</time>
      </trkpt>
      <trkpt lat="42.96425" lon="0.10232">
        <ele>1243.82</ele>
        <time>2018-02-24T08:41:39Z</time>
      </trkpt>
      <trkpt lat="42.96427" lon="0.10257">
        <ele>1248.4</ele>
        <time>2018-02-24T08:42:06Z</time>
      </trkpt>
      <trkpt lat="42.96436" lon="0.10279">
        <ele>1250.52</ele>
        <time>2018-02-24T08:42:28Z</time>
      </trkpt>
      <trkpt lat="42.96447" lon="0.10298">
        <ele>1246.31</ele>
        <time>2018-02-24T08:42:50Z</time>
      </trkpt>
      <trkpt lat="42.96443" lon="0.10324">
        <ele>1244.61</ele>
        <time>2018-02-24T08:43:14Z</time>
      </trkpt>
      <trkpt lat="42.96427" lon="0.10336">
        <ele>1247.52</ele>
        <time>2018-02-24T08:43:32Z</time>
      </trkpt>
      <trkpt lat="42.96417" lon="0.10356">
        <ele>1249.52</ele>
        <time>2018-02-24T08:43:52Z</time>
      </trkpt>
      <trkpt lat="42.96424" lon="0.10379">
        <ele>1256.43</ele>
        <time>2018-02-24T08:44:16Z</time>
      </trkpt>
      <trkpt lat="42.96422" lon="0.10405">
        <ele>1259.52</ele>
        <time>2018-02-24T08:44:47Z</time>
      </trkpt>
      <trkpt lat="42.96411" lon="0.10426">
        <ele>1254.84</ele>
        <time>2018-02-24T08:45:20Z</time>
      </trkpt>
      <trkpt lat="42.96403" lon="0.10449">
        <ele>1256.83</ele>
        <time>2018-02-24T08:45:41Z</time>
      </trkpt>
      <trkpt lat="42.96389" lon="0.10465">
        <ele>1258.55</ele>
        <time>2018-02-24T08:46:00Z</time>
      </trkpt>
      <trkpt lat="42.96395" lon="0.10489">
        <ele>1258.73</ele>
        <time>2018-02-24T08:46:26Z</time>
      </trkpt>
      <trkpt lat="42.96395" lon="0.10515">
        <ele>1262.23</ele>
        <time>2018-02-24T08:47:03Z</time>
      </trkpt>
      <trkpt lat="42.96409" lon="0.10534">
        <ele>1261.7</ele>
        <time>2018-02-24T08:47:26Z</time>
      </trkpt>
      <trkpt lat="42.9641" lon="0.10559">
        <ele>1264.81</ele>
        <time>2018-02-24T08:47:44Z</time>
      </trkpt>
      <trkpt lat="42.9641" lon="0.10584">
        <ele>1266.82</ele>
        <time>2018-02-24T08:48:03Z</time>
      </trkpt>
      <trkpt lat="42.96408" lon="0.10609">
        <ele>1267.52</ele>
        <time>2018-02-24T08:48:21Z</time>
      </trkpt>
      <trkpt lat="42.96405" lon="0.10633">
        <ele>1265.52</ele>
        <time>2018-02-24T08:48:39Z</time>
      </trkpt>
      <trkpt lat="42.96403" lon="0.10658">
        <ele>1265.73</ele>
        <time>2018-02-24T08:48:59Z</time>
      </trkpt>
      <trkpt lat="42.96403" lon="0.10683">
        <ele>1267.52</ele>
        <time>2018-02-24T08:49:22Z</time>
      </trkpt>
      <trkpt lat="42.96402" lon="0.10708">
        <ele>1267.52</ele>
        <time>2018-02-24T08:49:57Z</time>
      </trkpt>
      <trkpt lat="42.96398" lon="0.10733">
        <ele>1268.22</ele>
        <time>2018-02-24T08:50:14Z</time>
      </trkpt>
      <trkpt lat="42.96392" lon="0.10756">
        <ele>1270.85</ele>
        <time>2018-02-24T08:50:31Z</time>
      </trkpt>
      <trkpt lat="42.96387" lon="0.1078">
        <ele>1267.82</ele>
        <time>2018-02-24T08:50:44Z</time>
      </trkpt>
      <trkpt lat="42.96384" lon="0.10804">
        <ele>1267.62</ele>
        <time>2018-02-24T08:50:55Z</time>
      </trkpt>
      <trkpt lat="42.96378" lon="0.10828">
        <ele>1267.5</ele>
        <time>2018-02-24T08:51:08Z</time>
      </trkpt>
      <trkpt lat="42.96364" lon="0.10843">
        <ele>1251.47</ele>
        <time>2018-02-24T09:00:13Z</time>
      </trkpt>
      <trkpt lat="42.96366" lon="0.10869">
        <ele>1254.19</ele>
        <time>2018-02-24T09:00:33Z</time>
      </trkpt>
      <trkpt lat="42.96369" lon="0.10893">
        <ele>1257.34</ele>
        <time>2018-02-24T09:00:53Z</time>
      </trkpt>
      <trkpt lat="42.96362" lon="0.10918">
        <ele>1259.5</ele>
        <time>2018-02-24T09:01:27Z</time>
      </trkpt>
      <trkpt lat="42.96361" lon="0.10943">
        <ele>1258.53</ele>
        <time>2018-02-24T09:01:41Z</time>
      </trkpt>
      <trkpt lat="42.96355" lon="0.10967">
        <ele>1256.82</ele>
        <time>2018-02-24T09:01:56Z</time>
      </trkpt>
      <trkpt lat="42.96351" lon="0.10991">
        <ele>1258.42</ele>
        <time>2018-02-24T09:02:12Z</time>
      </trkpt>
      <trkpt lat="42.96351" lon="0.11016">
        <ele>1261.52</ele>
        <time>2018-02-24T09:02:29Z</time>
      </trkpt>
      <trkpt lat="42.96345" lon="0.11042">
        <ele>1261.52</ele>
        <time>2018-02-24T09:02:43Z</time>
      </trkpt>
      <trkpt lat="42.96348" lon="0.11066">
        <ele>1261.52</ele>
        <time>2018-02-24T09:02:57Z</time>
      </trkpt>
      <trkpt lat="42.96346" lon="0.11092">
        <ele>1262.52</ele>
        <time>2018-02-24T09:03:15Z</time>
      </trkpt>
      <trkpt lat="42.96342" lon="0.11117">
        <ele>1262.52</ele>
        <time>2018-02-24T09:03:37Z</time>
      </trkpt>
      <trkpt lat="42.96342" lon="0.11142">
        <ele>1260.52</ele>
        <time>2018-02-24T09:03:51Z</time>
      </trkpt>
      <trkpt lat="42.96348" lon="0.11165">
        <ele>1259.45</ele>
        <time>2018-02-24T09:04:02Z</time>
      </trkpt>
      <trkpt lat="42.96337" lon="0.11185">
        <ele>1250.5</ele>
        <time>2018-02-24T09:04:35Z</time>
      </trkpt>
      <trkpt lat="42.96327" lon="0.11207">
        <ele>1246.31</ele>
        <time>2018-02-24T09:08:25Z</time>
      </trkpt>
      <trkpt lat="42.96317" lon="0.11228">
        <ele>1247.52</ele>
        <time>2018-02-24T09:08:48Z</time>
      </trkpt>
      <trkpt lat="42.96306" lon="0.11247">
        <ele>1248.52</ele>
        <time>2018-02-24T09:09:06Z</time>
      </trkpt>
      <trkpt lat="42.96297" lon="0.11269">
        <ele>1250.46</ele>
        <time>2018-02-24T09:09:26Z</time>
      </trkpt>
      <trkpt lat="42.96291" lon="0.11293">
        <ele>1253.43</ele>
        <time>2018-02-24T09:09:50Z</time>
      </trkpt>
      <trkpt lat="42.96289" lon="0.11318">
        <ele>1256.52</ele>
        <time>2018-02-24T09:10:10Z</time>
      </trkpt>
      <trkpt lat="42.96283" lon="0.11342">
        <ele>1260.52</ele>
        <time>2018-02-24T09:10:34Z</time>
      </trkpt>
      <trkpt lat="42.96274" lon="0.11363">
        <ele>1264.43</ele>
        <time>2018-02-24T09:10:54Z</time>
      </trkpt>
      <trkpt lat="42.96265" lon="0.11385">
        <ele>1268.42</ele>
        <time>2018-02-24T09:11:17Z</time>
      </trkpt>
      <trkpt lat="42.96253" lon="0.11405">
        <ele>1270.49</ele>
        <time>2018-02-24T09:11:34Z</time>
      </trkpt>
      <trkpt lat="42.96272" lon="0.11401">
        <ele>1271.52</ele>
        <time>2018-02-24T09:12:37Z</time>
      </trkpt>
      <trkpt lat="42.9629" lon="0.11408">
        <ele>1278.42</ele>
        <time>2018-02-24T09:12:59Z</time>
      </trkpt>
      <trkpt lat="42.96293" lon="0.11433">
        <ele>1284.52</ele>
        <time>2018-02-24T09:13:30Z</time>
      </trkpt>
      <trkpt lat="42.96287" lon="0.11458">
        <ele>1289.53</ele>
        <time>2018-02-24T09:13:55Z</time>
      </trkpt>
      <trkpt lat="42.96274" lon="0.11475">
        <ele>1291.5</ele>
        <time>2018-02-24T09:14:13Z</time>
      </trkpt>
      <trkpt lat="42.96258" lon="0.1149">
        <ele>1290.6</ele>
        <time>2018-02-24T09:14:30Z</time>
      </trkpt>
      <trkpt lat="42.9624" lon="0.11495">
        <ele>1291.52</ele>
        <time>2018-02-24T09:14:51Z</time>
      </trkpt>
      <trkpt lat="42.96225" lon="0.1151">
        <ele>1291.5</ele>
        <time>2018-02-24T09:15:14Z</time>
      </trkpt>
      <trkpt lat="42.9621" lon="0.11524">
        <ele>1291.46</ele>
        <time>2018-02-24T09:15:28Z</time>
      </trkpt>
      <trkpt lat="42.96198" lon="0.11544">
        <ele>1293.81</ele>
        <time>2018-02-24T09:15:46Z</time>
      </trkpt>
      <trkpt lat="42.96186" lon="0.11563">
        <ele>1293.52</ele>
        <time>2018-02-24T09:16:02Z</time>
      </trkpt>
      <trkpt lat="42.96171" lon="0.11577">
        <ele>1292.53</ele>
        <time>2018-02-24T09:16:19Z</time>
      </trkpt>
      <trkpt lat="42.96153" lon="0.11586">
        <ele>1293.29</ele>
        <time>2018-02-24T09:16:39Z</time>
      </trkpt>
      <trkpt lat="42.96136" lon="0.11594">
        <ele>1295.52</ele>
        <time>2018-02-24T09:17:01Z</time>
      </trkpt>
      <trkpt lat="42.96118" lon="0.11602">
        <ele>1296.61</ele>
        <time>2018-02-24T09:17:18Z</time>
      </trkpt>
      <trkpt lat="42.96101" lon="0.11612">
        <ele>1301.52</ele>
        <time>2018-02-24T09:17:37Z</time>
      </trkpt>
      <trkpt lat="42.96084" lon="0.11619">
        <ele>1301.52</ele>
        <time>2018-02-24T09:17:57Z</time>
      </trkpt>
      <trkpt lat="42.96066" lon="0.11627">
        <ele>1302.31</ele>
        <time>2018-02-24T09:18:18Z</time>
      </trkpt>
      <trkpt lat="42.96048" lon="0.11636">
        <ele>1309.49</ele>
        <time>2018-02-24T09:18:45Z</time>
      </trkpt>
      <trkpt lat="42.96047" lon="0.11661">
        <ele>1321.12</ele>
        <time>2018-02-24T09:19:13Z</time>
      </trkpt>
      <trkpt lat="42.96056" lon="0.11684">
        <ele>1328.49</ele>
        <time>2018-02-24T09:19:42Z</time>
      </trkpt>
      <trkpt lat="42.96066" lon="0.11705">
        <ele>1331.52</ele>
        <time>2018-02-24T09:20:09Z</time>
      </trkpt>
      <trkpt lat="42.96059" lon="0.11727">
        <ele>1335.43</ele>
        <time>2018-02-24T09:20:35Z</time>
      </trkpt>
      <trkpt lat="42.96049" lon="0.11748">
        <ele>1337.49</ele>
        <time>2018-02-24T09:21:07Z</time>
      </trkpt>
      <trkpt lat="42.96035" lon="0.11763">
        <ele>1337.54</ele>
        <time>2018-02-24T09:21:31Z</time>
      </trkpt>
      <trkpt lat="42.9602" lon="0.11779">
        <ele>1337.76</ele>
        <time>2018-02-24T09:21:56Z</time>
      </trkpt>
      <trkpt lat="42.96014" lon="0.11803">
        <ele>1344.52</ele>
        <time>2018-02-24T09:22:31Z</time>
      </trkpt>
      <trkpt lat="42.96017" lon="0.11827">
        <ele>1347.52</ele>
        <time>2018-02-24T09:22:56Z</time>
      </trkpt>
      <trkpt lat="42.96014" lon="0.11852">
        <ele>1346.52</ele>
        <time>2018-02-24T09:23:32Z</time>
      </trkpt>
      <trkpt lat="42.96005" lon="0.11874">
        <ele>1347.43</ele>
        <time>2018-02-24T09:24:03Z</time>
      </trkpt>
      <trkpt lat="42.95994" lon="0.11894">
        <ele>1350.43</ele>
        <time>2018-02-24T09:24:32Z</time>
      </trkpt>
      <trkpt lat="42.95986" lon="0.11917">
        <ele>1355.51</ele>
        <time>2018-02-24T09:25:06Z</time>
      </trkpt>
      <trkpt lat="42.96004" lon="0.11912">
        <ele>1364.49</ele>
        <time>2018-02-24T09:25:37Z</time>
      </trkpt>
      <trkpt lat="42.95996" lon="0.11934">
        <ele>1379.42</ele>
        <time>2018-02-24T09:26:34Z</time>
      </trkpt>
      <trkpt lat="42.95989" lon="0.11957">
        <ele>1379.5</ele>
        <time>2018-02-24T09:27:54Z</time>
      </trkpt>
      <trkpt lat="42.96006" lon="0.11948">
        <ele>1394.12</ele>
        <time>2018-02-24T09:35:21Z</time>
      </trkpt>
      <trkpt lat="42.96023" lon="0.11957">
        <ele>1399.52</ele>
        <time>2018-02-24T09:37:15Z</time>
      </trkpt>
      <trkpt lat="42.96017" lon="0.1198">
        <ele>1409.53</ele>
        <time>2018-02-24T09:38:22Z</time>
      </trkpt>
      <trkpt lat="42.96005" lon="0.11999">
        <ele>1413.73</ele>
        <time>2018-02-24T09:38:50Z</time>
      </trkpt>
      <trkpt lat="42.95995" lon="0.1202">
        <ele>1419.75</ele>
        <time>2018-02-24T09:39:34Z</time>
      </trkpt>
      <trkpt lat="42.9599" lon="0.12044">
        <ele>1423.21</ele>
        <time>2018-02-24T09:40:05Z</time>
      </trkpt>
      <trkpt lat="42.95982" lon="0.12066">
        <ele>1429.43</ele>
        <time>2018-02-24T09:40:35Z</time>
      </trkpt>
      <trkpt lat="42.95971" lon="0.12085">
        <ele>1435.22</ele>
        <time>2018-02-24T09:41:07Z</time>
      </trkpt>
      <trkpt lat="42.95958" lon="0.12103">
        <ele>1442.49</ele>
        <time>2018-02-24T09:41:43Z</time>
      </trkpt>
      <trkpt lat="42.95977" lon="0.12107">
        <ele>1449.46</ele>
        <time>2018-02-24T09:42:43Z</time>
      </trkpt>
      <trkpt lat="42.95982" lon="0.12131">
        <ele>1457.53</ele>
        <time>2018-02-24T09:43:52Z</time>
      </trkpt>
      <trkpt lat="42.95971" lon="0.12151">
        <ele>1469.43</ele>
        <time>2018-02-24T09:44:37Z</time>
      </trkpt>
      <trkpt lat="42.95955" lon="0.12164">
        <ele>1476.42</ele>
        <time>2018-02-24T09:45:11Z</time>
      </trkpt>
      <trkpt lat="42.9594" lon="0.12177">
        <ele>1479.42</ele>
        <time>2018-02-24T09:45:46Z</time>
      </trkpt>
      <trkpt lat="42.95927" lon="0.12194">
        <ele>1484.43</ele>
        <time>2018-02-24T09:46:15Z</time>
      </trkpt>
      <trkpt lat="42.95917" lon="0.12215">
        <ele>1489.2</ele>
        <time>2018-02-24T09:50:14Z</time>
      </trkpt>
      <trkpt lat="42.95906" lon="0.12235">
        <ele>1491.52</ele>
        <time>2018-02-24T09:50:44Z</time>
      </trkpt>
      <trkpt lat="42.95891" lon="0.1225">
        <ele>1495.52</ele>
        <time>2018-02-24T09:51:15Z</time>
      </trkpt>
      <trkpt lat="42.95878" lon="0.1227">
        <ele>1505.22</ele>
        <time>2018-02-24T09:51:54Z</time>
      </trkpt>
      <trkpt lat="42.95896" lon="0.12275">
        <ele>1508.92</ele>
        <time>2018-02-24T09:52:37Z</time>
      </trkpt>
      <trkpt lat="42.95897" lon="0.12299">
        <ele>1521.82</ele>
        <time>2018-02-24T09:53:43Z</time>
      </trkpt>
      <trkpt lat="42.95914" lon="0.12308">
        <ele>1527.43</ele>
        <time>2018-02-24T09:56:34Z</time>
      </trkpt>
      <trkpt lat="42.95932" lon="0.12308">
        <ele>1530.52</ele>
        <time>2018-02-24T09:57:04Z</time>
      </trkpt>
      <trkpt lat="42.95926" lon="0.12332">
        <ele>1537.52</ele>
        <time>2018-02-24T09:57:43Z</time>
      </trkpt>
      <trkpt lat="42.95914" lon="0.1235">
        <ele>1543.22</ele>
        <time>2018-02-24T09:58:12Z</time>
      </trkpt>
      <trkpt lat="42.95908" lon="0.12374">
        <ele>1549.43</ele>
        <time>2018-02-24T09:58:50Z</time>
      </trkpt>
      <trkpt lat="42.959" lon="0.12397">
        <ele>1551.8</ele>
        <time>2018-02-24T09:59:18Z</time>
      </trkpt>
      <trkpt lat="42.95894" lon="0.12421">
        <ele>1556.49</ele>
        <time>2018-02-24T10:12:24Z</time>
      </trkpt>
      <trkpt lat="42.9589" lon="0.12445">
        <ele>1560.22</ele>
        <time>2018-02-24T10:13:00Z</time>
      </trkpt>
      <trkpt lat="42.95888" lon="0.12471">
        <ele>1568.73</ele>
        <time>2018-02-24T10:13:39Z</time>
      </trkpt>
      <trkpt lat="42.95884" lon="0.12496">
        <ele>1572.52</ele>
        <time>2018-02-24T10:14:28Z</time>
      </trkpt>
      <trkpt lat="42.95872" lon="0.12515">
        <ele>1572.81</ele>
        <time>2018-02-24T10:14:55Z</time>
      </trkpt>
      <trkpt lat="42.95862" lon="0.12538">
        <ele>1576.22</ele>
        <time>2018-02-24T10:15:35Z</time>
      </trkpt>
      <trkpt lat="42.95857" lon="0.12562">
        <ele>1582.49</ele>
        <time>2018-02-24T10:16:15Z</time>
      </trkpt>
      <trkpt lat="42.95855" lon="0.12587">
        <ele>1586.19</ele>
        <time>2018-02-24T10:16:49Z</time>
      </trkpt>
      <trkpt lat="42.95849" lon="0.12611">
        <ele>1590.5</ele>
        <time>2018-02-24T10:17:25Z</time>
      </trkpt>
      <trkpt lat="42.95841" lon="0.12633">
        <ele>1594.43</ele>
        <time>2018-02-24T10:18:04Z</time>
      </trkpt>
      <trkpt lat="42.95831" lon="0.12655">
        <ele>1597.75</ele>
        <time>2018-02-24T10:18:39Z</time>
      </trkpt>
      <trkpt lat="42.95825" lon="0.12678">
        <ele>1600.53</ele>
        <time>2018-02-24T10:19:18Z</time>
      </trkpt>
      <trkpt lat="42.95818" lon="0.12703">
        <ele>1606.82</ele>
        <time>2018-02-24T10:20:05Z</time>
      </trkpt>
      <trkpt lat="42.95812" lon="0.12727">
        <ele>1613.31</ele>
        <time>2018-02-24T10:20:48Z</time>
      </trkpt>
      <trkpt lat="42.95816" lon="0.12752">
        <ele>1624.22</ele>
        <time>2018-02-24T10:23:22Z</time>
      </trkpt>
      <trkpt lat="42.95825" lon="0.12773">
        <ele>1633.43</ele>
        <time>2018-02-24T10:24:45Z</time>
      </trkpt>
      <trkpt lat="42.95842" lon="0.12783">
        <ele>1645.46</ele>
        <time>2018-02-24T10:25:51Z</time>
      </trkpt>
      <trkpt lat="42.95842" lon="0.12807">
        <ele>1650.51</ele>
        <time>2018-02-24T10:26:48Z</time>
      </trkpt>
      <trkpt lat="42.95836" lon="0.12831">
        <ele>1653.22</ele>
        <time>2018-02-24T10:27:20Z</time>
      </trkpt>
      <trkpt lat="42.9583" lon="0.12855">
        <ele>1661.43</ele>
        <time>2018-02-24T10:27:59Z</time>
      </trkpt>
      <trkpt lat="42.95825" lon="0.12879">
        <ele>1664.5</ele>
        <time>2018-02-24T10:28:39Z</time>
      </trkpt>
      <trkpt lat="42.95822" lon="0.12904">
        <ele>1671.22</ele>
        <time>2018-02-24T10:29:12Z</time>
      </trkpt>
      <trkpt lat="42.95816" lon="0.12928">
        <ele>1678.22</ele>
        <time>2018-02-24T10:29:47Z</time>
      </trkpt>
      <trkpt lat="42.95815" lon="0.12953">
        <ele>1684.52</ele>
        <time>2018-02-24T10:30:29Z</time>
      </trkpt>
      <trkpt lat="42.95815" lon="0.12978">
        <ele>1687.53</ele>
        <time>2018-02-24T10:31:18Z</time>
      </trkpt>
      <trkpt lat="42.95831" lon="0.12967">
        <ele>1696.22</ele>
        <time>2018-02-24T10:31:57Z</time>
      </trkpt>
      <trkpt lat="42.9585" lon="0.12964">
        <ele>1701.52</ele>
        <time>2018-02-24T10:32:28Z</time>
      </trkpt>
      <trkpt lat="42.95861" lon="0.12983">
        <ele>1708.51</ele>
        <time>2018-02-24T10:33:31Z</time>
      </trkpt>
      <trkpt lat="42.95861" lon="0.13007">
        <ele>1719.49</ele>
        <time>2018-02-24T10:34:09Z</time>
      </trkpt>
      <trkpt lat="42.95878" lon="0.13015">
        <ele>1724.52</ele>
        <time>2018-02-24T10:35:21Z</time>
      </trkpt>
      <trkpt lat="42.95896" lon="0.13012">
        <ele>1727.49</ele>
        <time>2018-02-24T10:35:54Z</time>
      </trkpt>
      <trkpt lat="42.95915" lon="0.13009">
        <ele>1733.52</ele>
        <time>2018-02-24T10:36:30Z</time>
      </trkpt>
      <trkpt lat="42.95912" lon="0.13034">
        <ele>1737.22</ele>
        <time>2018-02-24T10:37:15Z</time>
      </trkpt>
      <trkpt lat="42.95926" lon="0.1305">
        <ele>1750.41</ele>
        <time>2018-02-24T10:37:58Z</time>
      </trkpt>
      <trkpt lat="42.95935" lon="0.13072">
        <ele>1757.49</ele>
        <time>2018-02-24T10:38:58Z</time>
      </trkpt>
      <trkpt lat="42.95944" lon="0.13094">
        <ele>1764.22</ele>
        <time>2018-02-24T10:40:09Z</time>
      </trkpt>
      <trkpt lat="42.95962" lon="0.13096">
        <ele>1769.19</ele>
        <time>2018-02-24T10:40:45Z</time>
      </trkpt>
      <trkpt lat="42.95959" lon="0.13121">
        <ele>1773.2</ele>
        <time>2018-02-24T10:41:27Z</time>
      </trkpt>
      <trkpt lat="42.95953" lon="0.13145">
        <ele>1777.52</ele>
        <time>2018-02-24T10:42:05Z</time>
      </trkpt>
      <trkpt lat="42.95949" lon="0.13169">
        <ele>1781.82</ele>
        <time>2018-02-24T10:42:48Z</time>
      </trkpt>
      <trkpt lat="42.95952" lon="0.13193">
        <ele>1791.22</ele>
        <time>2018-02-24T10:43:44Z</time>
      </trkpt>
      <trkpt lat="42.95972" lon="0.13197">
        <ele>1796.52</ele>
        <time>2018-02-24T10:44:20Z</time>
      </trkpt>
      <trkpt lat="42.95991" lon="0.13201">
        <ele>1803.21</ele>
        <time>2018-02-24T10:45:01Z</time>
      </trkpt>
      <trkpt lat="42.95988" lon="0.13226">
        <ele>1809.73</ele>
        <time>2018-02-24T10:45:46Z</time>
      </trkpt>
      <trkpt lat="42.95983" lon="0.13249">
        <ele>1812.52</ele>
        <time>2018-02-24T10:46:23Z</time>
      </trkpt>
      <trkpt lat="42.95976" lon="0.13273">
        <ele>1818.52</ele>
        <time>2018-02-24T10:47:01Z</time>
      </trkpt>
      <trkpt lat="42.95994" lon="0.13279">
        <ele>1828.43</ele>
        <time>2018-02-24T10:47:48Z</time>
      </trkpt>
      <trkpt lat="42.96012" lon="0.13283">
        <ele>1834.51</ele>
        <time>2018-02-24T10:48:25Z</time>
      </trkpt>
      <trkpt lat="42.96013" lon="0.13309">
        <ele>1842.22</ele>
        <time>2018-02-24T10:49:36Z</time>
      </trkpt>
      <trkpt lat="42.96007" lon="0.13333">
        <ele>1845.49</ele>
        <time>2018-02-24T10:50:19Z</time>
      </trkpt>
      <trkpt lat="42.96" lon="0.13355">
        <ele>1850.49</ele>
        <time>2018-02-24T10:50:49Z</time>
      </trkpt>
      <trkpt lat="42.96017" lon="0.13365">
        <ele>1862.52</ele>
        <time>2018-02-24T10:53:27Z</time>
      </trkpt>
      <trkpt lat="42.96035" lon="0.13367">
        <ele>1866.22</ele>
        <time>2018-02-24T10:53:56Z</time>
      </trkpt>
      <trkpt lat="42.96053" lon="0.13371">
        <ele>1874.43</ele>
        <time>2018-02-24T10:54:35Z</time>
      </trkpt>
      <trkpt lat="42.96071" lon="0.13373">
        <ele>1880.51</ele>
        <time>2018-02-24T10:55:09Z</time>
      </trkpt>
      <trkpt lat="42.96073" lon="0.13398">
        <ele>1887.22</ele>
        <time>2018-02-24T10:55:59Z</time>
      </trkpt>
      <trkpt lat="42.96067" lon="0.13421">
        <ele>1889.58</ele>
        <time>2018-02-24T10:56:33Z</time>
      </trkpt>
      <trkpt lat="42.9606" lon="0.13444">
        <ele>1896.43</ele>
        <time>2018-02-24T10:57:10Z</time>
      </trkpt>
      <trkpt lat="42.96053" lon="0.13468">
        <ele>1903.43</ele>
        <time>2018-02-24T10:57:48Z</time>
      </trkpt>
      <trkpt lat="42.96071" lon="0.13474">
        <ele>1908.5</ele>
        <time>2018-02-24T10:58:51Z</time>
      </trkpt>
      <trkpt lat="42.96089" lon="0.13478">
        <ele>1915.22</ele>
        <time>2018-02-24T10:59:29Z</time>
      </trkpt>
      <trkpt lat="42.96107" lon="0.13479">
        <ele>1919.52</ele>
        <time>2018-02-24T11:00:04Z</time>
      </trkpt>
      <trkpt lat="42.96112" lon="0.13503">
        <ele>1926.52</ele>
        <time>2018-02-24T11:01:01Z</time>
      </trkpt>
      <trkpt lat="42.96105" lon="0.13526">
        <ele>1930.43</ele>
        <time>2018-02-24T11:01:44Z</time>
      </trkpt>
      <trkpt lat="42.96099" lon="0.13551">
        <ele>1935.51</ele>
        <time>2018-02-24T11:02:22Z</time>
      </trkpt>
      <trkpt lat="42.96095" lon="0.13574">
        <ele>1942.49</ele>
        <time>2018-02-24T11:02:59Z</time>
      </trkpt>
      <trkpt lat="42.96113" lon="0.13581">
        <ele>1951.22</ele>
        <time>2018-02-24T11:04:31Z</time>
      </trkpt>
      <trkpt lat="42.96132" lon="0.13584">
        <ele>1955.13</ele>
        <time>2018-02-24T11:05:06Z</time>
      </trkpt>
      <trkpt lat="42.9615" lon="0.1359">
        <ele>1961.43</ele>
        <time>2018-02-24T11:05:59Z</time>
      </trkpt>
      <trkpt lat="42.96146" lon="0.13614">
        <ele>1970.49</ele>
        <time>2018-02-24T11:06:45Z</time>
      </trkpt>
      <trkpt lat="42.96141" lon="0.13638">
        <ele>1976.58</ele>
        <time>2018-02-24T11:07:32Z</time>
      </trkpt>
      <trkpt lat="42.96134" lon="0.13661">
        <ele>1981.43</ele>
        <time>2018-02-24T11:08:10Z</time>
      </trkpt>
      <trkpt lat="42.96126" lon="0.13684">
        <ele>1986.51</ele>
        <time>2018-02-24T11:09:02Z</time>
      </trkpt>
      <trkpt lat="42.9612" lon="0.13707">
        <ele>1989.52</ele>
        <time>2018-02-24T11:09:40Z</time>
      </trkpt>
      <trkpt lat="42.96124" lon="0.13731">
        <ele>1998.52</ele>
        <time>2018-02-24T11:10:45Z</time>
      </trkpt>
      <trkpt lat="42.96143" lon="0.13738">
        <ele>2003.52</ele>
        <time>2018-02-24T11:11:39Z</time>
      </trkpt>
      <trkpt lat="42.9616" lon="0.13741">
        <ele>2011.52</ele>
        <time>2018-02-24T11:12:49Z</time>
      </trkpt>
      <trkpt lat="42.9617" lon="0.13762">
        <ele>2017.49</ele>
        <time>2018-02-24T11:13:55Z</time>
      </trkpt>
      <trkpt lat="42.96167" lon="0.13786">
        <ele>2028.23</ele>
        <time>2018-02-24T11:14:40Z</time>
      </trkpt>
      <trkpt lat="42.96162" lon="0.1381">
        <ele>2035.52</ele>
        <time>2018-02-24T11:15:38Z</time>
      </trkpt>
      <trkpt lat="42.96178" lon="0.13824">
        <ele>2043.22</ele>
        <time>2018-02-24T11:17:03Z</time>
      </trkpt>
      <trkpt lat="42.96188" lon="0.13845">
        <ele>2054.22</ele>
        <time>2018-02-24T11:18:11Z</time>
      </trkpt>
      <trkpt lat="42.9618" lon="0.13867">
        <ele>2060.22</ele>
        <time>2018-02-24T11:18:50Z</time>
      </trkpt>
      <trkpt lat="42.96196" lon="0.1388">
        <ele>2065.52</ele>
        <time>2018-02-24T11:20:51Z</time>
      </trkpt>
      <trkpt lat="42.96215" lon="0.13876">
        <ele>2073.51</ele>
        <time>2018-02-24T11:21:30Z</time>
      </trkpt>
      <trkpt lat="42.96233" lon="0.13873">
        <ele>2079.43</ele>
        <time>2018-02-24T11:22:10Z</time>
      </trkpt>
      <trkpt lat="42.96237" lon="0.13897">
        <ele>2090.52</ele>
        <time>2018-02-24T11:23:23Z</time>
      </trkpt>
      <trkpt lat="42.96229" lon="0.1392">
        <ele>2091.52</ele>
        <time>2018-02-24T11:23:56Z</time>
      </trkpt>
      <trkpt lat="42.96223" lon="0.13943">
        <ele>2096.43</ele>
        <time>2018-02-24T11:24:45Z</time>
      </trkpt>
      <trkpt lat="42.96218" lon="0.13967">
        <ele>2099.49</ele>
        <time>2018-02-24T11:25:20Z</time>
      </trkpt>
      <trkpt lat="42.96211" lon="0.1399">
        <ele>2106.51</ele>
        <time>2018-02-24T11:26:01Z</time>
      </trkpt>
      <trkpt lat="42.96228" lon="0.13982">
        <ele>2111.52</ele>
        <time>2018-02-24T11:27:18Z</time>
      </trkpt>
      <trkpt lat="42.96246" lon="0.13976">
        <ele>2116.22</ele>
        <time>2018-02-24T11:28:20Z</time>
      </trkpt>
      <trkpt lat="42.96264" lon="0.1397">
        <ele>2122.52</ele>
        <time>2018-02-24T11:29:02Z</time>
      </trkpt>
      <trkpt lat="42.96283" lon="0.13969">
        <ele>2126.45</ele>
        <time>2018-02-24T11:29:42Z</time>
      </trkpt>
      <trkpt lat="42.963" lon="0.13963">
        <ele>2135.49</ele>
        <time>2018-02-24T11:30:56Z</time>
      </trkpt>
      <trkpt lat="42.96301" lon="0.13987">
        <ele>2140.51</ele>
        <time>2018-02-24T11:32:02Z</time>
      </trkpt>
      <trkpt lat="42.96299" lon="0.14013">
        <ele>2145.52</ele>
        <time>2018-02-24T11:32:59Z</time>
      </trkpt>
      <trkpt lat="42.96297" lon="0.14039">
        <ele>2150.81</ele>
        <time>2018-02-24T11:33:38Z</time>
      </trkpt>
      <trkpt lat="42.96315" lon="0.14038">
        <ele>2160.52</ele>
        <time>2018-02-24T11:45:00Z</time>
      </trkpt>
      <trkpt lat="42.96332" lon="0.14032">
        <ele>2162.52</ele>
        <time>2018-02-24T11:45:39Z</time>
      </trkpt>
      <trkpt lat="42.9635" lon="0.14032">
        <ele>2170.19</ele>
        <time>2018-02-24T11:46:19Z</time>
      </trkpt>
      <trkpt lat="42.96368" lon="0.14025">
        <ele>2176.52</ele>
        <time>2018-02-24T11:49:22Z</time>
      </trkpt>
      <trkpt lat="42.96382" lon="0.14008">
        <ele>2174.52</ele>
        <time>2018-02-24T11:52:42Z</time>
      </trkpt>
      <trkpt lat="42.96386" lon="0.13984">
        <ele>2172.82</ele>
        <time>2018-02-24T11:52:55Z</time>
      </trkpt>
      <trkpt lat="42.96394" lon="0.1396">
        <ele>2169.55</ele>
        <time>2018-02-24T11:53:10Z</time>
      </trkpt>
      <trkpt lat="42.964" lon="0.13937">
        <ele>2168.82</ele>
        <time>2018-02-24T11:53:27Z</time>
      </trkpt>
      <trkpt lat="42.96409" lon="0.13915">
        <ele>2167.52</ele>
        <time>2018-02-24T11:53:38Z</time>
      </trkpt>
      <trkpt lat="42.96418" lon="0.13892">
        <ele>2163.55</ele>
        <time>2018-02-24T11:53:53Z</time>
      </trkpt>
      <trkpt lat="42.96431" lon="0.13873">
        <ele>2161.44</ele>
        <time>2018-02-24T11:54:12Z</time>
      </trkpt>
      <trkpt lat="42.96444" lon="0.13855">
        <ele>2158.52</ele>
        <time>2018-02-24T11:56:06Z</time>
      </trkpt>
      <trkpt lat="42.9646" lon="0.13843">
        <ele>2158.52</ele>
        <time>2018-02-24T11:56:27Z</time>
      </trkpt>
      <trkpt lat="42.96478" lon="0.13838">
        <ele>2158.52</ele>
        <time>2018-02-24T11:56:51Z</time>
      </trkpt>
      <trkpt lat="42.96495" lon="0.13829">
        <ele>2161.43</ele>
        <time>2018-02-24T11:57:19Z</time>
      </trkpt>
      <trkpt lat="42.96512" lon="0.1382">
        <ele>2160.82</ele>
        <time>2018-02-24T11:57:41Z</time>
      </trkpt>
      <trkpt lat="42.9653" lon="0.13816">
        <ele>2163.51</ele>
        <time>2018-02-24T11:58:04Z</time>
      </trkpt>
      <trkpt lat="42.96549" lon="0.13814">
        <ele>2165.43</ele>
        <time>2018-02-24T11:58:50Z</time>
      </trkpt>
      <trkpt lat="42.96566" lon="0.13804">
        <ele>2168.72</ele>
        <time>2018-02-24T11:59:13Z</time>
      </trkpt>
      <trkpt lat="42.96546" lon="0.13792">
        <ele>2165.55</ele>
        <time>2018-02-24T12:34:05Z</time>
      </trkpt>
      <trkpt lat="42.96531" lon="0.13771">
        <ele>2162.61</ele>
        <time>2018-02-24T12:34:17Z</time>
      </trkpt>
      <trkpt lat="42.9652" lon="0.13751">
        <ele>2160.62</ele>
        <time>2018-02-24T12:34:21Z</time>
      </trkpt>
      <trkpt lat="42.96503" lon="0.13736">
        <ele>2156.94</ele>
        <time>2018-02-24T12:34:27Z</time>
      </trkpt>
      <trkpt lat="42.96492" lon="0.13714">
        <ele>2147.94</ele>
        <time>2018-02-24T12:35:01Z</time>
      </trkpt>
      <trkpt lat="42.96476" lon="0.13694">
        <ele>2141.98</ele>
        <time>2018-02-24T12:35:06Z</time>
      </trkpt>
      <trkpt lat="42.96468" lon="0.1367">
        <ele>2136.95</ele>
        <time>2018-02-24T12:35:11Z</time>
      </trkpt>
      <trkpt lat="42.96459" lon="0.13647">
        <ele>2130.95</ele>
        <time>2018-02-24T12:35:17Z</time>
      </trkpt>
      <trkpt lat="42.96439" lon="0.13645">
        <ele>2111.04</ele>
        <time>2018-02-24T12:35:48Z</time>
      </trkpt>
      <trkpt lat="42.96418" lon="0.13649">
        <ele>2103.7</ele>
        <time>2018-02-24T12:35:51Z</time>
      </trkpt>
      <trkpt lat="42.96398" lon="0.13656">
        <ele>2097.32</ele>
        <time>2018-02-24T12:35:54Z</time>
      </trkpt>
      <trkpt lat="42.96381" lon="0.13668">
        <ele>2091.38</ele>
        <time>2018-02-24T12:35:57Z</time>
      </trkpt>
      <trkpt lat="42.96364" lon="0.13682">
        <ele>2084.35</ele>
        <time>2018-02-24T12:36:01Z</time>
      </trkpt>
      <trkpt lat="42.96345" lon="0.13697">
        <ele>2078.95</ele>
        <time>2018-02-24T12:36:06Z</time>
      </trkpt>
      <trkpt lat="42.96327" lon="0.13709">
        <ele>2073.95</ele>
        <time>2018-02-24T12:36:11Z</time>
      </trkpt>
      <trkpt lat="42.96308" lon="0.13722">
        <ele>2071.64</ele>
        <time>2018-02-24T12:36:15Z</time>
      </trkpt>
      <trkpt lat="42.96288" lon="0.13736">
        <ele>2067.95</ele>
        <time>2018-02-24T12:36:19Z</time>
      </trkpt>
      <trkpt lat="42.96269" lon="0.1375">
        <ele>2063.93</ele>
        <time>2018-02-24T12:36:23Z</time>
      </trkpt>
      <trkpt lat="42.96251" lon="0.13762">
        <ele>2059.86</ele>
        <time>2018-02-24T12:36:28Z</time>
      </trkpt>
      <trkpt lat="42.96233" lon="0.13774">
        <ele>2055.65</ele>
        <time>2018-02-24T12:36:33Z</time>
      </trkpt>
      <trkpt lat="42.96213" lon="0.13785">
        <ele>2051.86</ele>
        <time>2018-02-24T12:36:38Z</time>
      </trkpt>
      <trkpt lat="42.96191" lon="0.13799">
        <ele>2049.85</ele>
        <time>2018-02-24T12:36:42Z</time>
      </trkpt>
      <trkpt lat="42.96174" lon="0.1381">
        <ele>2044.96</ele>
        <time>2018-02-24T12:36:47Z</time>
      </trkpt>
      <trkpt lat="42.96175" lon="0.13785">
        <ele>2043.55</ele>
        <time>2018-02-24T12:36:51Z</time>
      </trkpt>
      <trkpt lat="42.96189" lon="0.13766">
        <ele>2038.86</ele>
        <time>2018-02-24T12:36:56Z</time>
      </trkpt>
      <trkpt lat="42.96201" lon="0.13744">
        <ele>2033.66</ele>
        <time>2018-02-24T12:37:01Z</time>
      </trkpt>
      <trkpt lat="42.96181" lon="0.1375">
        <ele>2030.64</ele>
        <time>2018-02-24T12:37:08Z</time>
      </trkpt>
      <trkpt lat="42.96181" lon="0.13725">
        <ele>2023.07</ele>
        <time>2018-02-24T12:37:14Z</time>
      </trkpt>
      <trkpt lat="42.96169" lon="0.13703">
        <ele>2015.92</ele>
        <time>2018-02-24T12:37:28Z</time>
      </trkpt>
      <trkpt lat="42.96158" lon="0.13678">
        <ele>2013.62</ele>
        <time>2018-02-24T12:37:33Z</time>
      </trkpt>
      <trkpt lat="42.96151" lon="0.13652">
        <ele>2008.23</ele>
        <time>2018-02-24T12:37:38Z</time>
      </trkpt>
      <trkpt lat="42.96157" lon="0.13628">
        <ele>2000.71</ele>
        <time>2018-02-24T12:37:42Z</time>
      </trkpt>
      <trkpt lat="42.96172" lon="0.13606">
        <ele>1992.17</ele>
        <time>2018-02-24T12:37:46Z</time>
      </trkpt>
      <trkpt lat="42.9617" lon="0.13581">
        <ele>1987.04</ele>
        <time>2018-02-24T12:37:50Z</time>
      </trkpt>
      <trkpt lat="42.96162" lon="0.13557">
        <ele>1981.17</ele>
        <time>2018-02-24T12:37:56Z</time>
      </trkpt>
      <trkpt lat="42.9616" lon="0.13532">
        <ele>1975.55</ele>
        <time>2018-02-24T12:38:00Z</time>
      </trkpt>
      <trkpt lat="42.96158" lon="0.13501">
        <ele>1965.47</ele>
        <time>2018-02-24T12:38:05Z</time>
      </trkpt>
      <trkpt lat="42.96152" lon="0.13471">
        <ele>1955.05</ele>
        <time>2018-02-24T12:38:11Z</time>
      </trkpt>
      <trkpt lat="42.96142" lon="0.13447">
        <ele>1947.05</ele>
        <time>2018-02-24T12:38:16Z</time>
      </trkpt>
      <trkpt lat="42.96131" lon="0.13425">
        <ele>1938.26</ele>
        <time>2018-02-24T12:38:21Z</time>
      </trkpt>
      <trkpt lat="42.96124" lon="0.13399">
        <ele>1928.38</ele>
        <time>2018-02-24T12:38:26Z</time>
      </trkpt>
      <trkpt lat="42.96115" lon="0.13371">
        <ele>1920.99</ele>
        <time>2018-02-24T12:38:31Z</time>
      </trkpt>
      <trkpt lat="42.96107" lon="0.13345">
        <ele>1908.8</ele>
        <time>2018-02-24T12:38:36Z</time>
      </trkpt>
      <trkpt lat="42.96098" lon="0.1332">
        <ele>1900.37</ele>
        <time>2018-02-24T12:38:41Z</time>
      </trkpt>
      <trkpt lat="42.96085" lon="0.13303">
        <ele>1894.98</ele>
        <time>2018-02-24T12:38:45Z</time>
      </trkpt>
      <trkpt lat="42.96076" lon="0.13281">
        <ele>1889.28</ele>
        <time>2018-02-24T12:38:49Z</time>
      </trkpt>
      <trkpt lat="42.96065" lon="0.1326">
        <ele>1879.5</ele>
        <time>2018-02-24T12:38:53Z</time>
      </trkpt>
      <trkpt lat="42.96055" lon="0.13235">
        <ele>1869.19</ele>
        <time>2018-02-24T12:38:58Z</time>
      </trkpt>
      <trkpt lat="42.96049" lon="0.13205">
        <ele>1859.99</ele>
        <time>2018-02-24T12:39:03Z</time>
      </trkpt>
      <trkpt lat="42.96045" lon="0.13178">
        <ele>1851.38</ele>
        <time>2018-02-24T12:39:07Z</time>
      </trkpt>
      <trkpt lat="42.96038" lon="0.13151">
        <ele>1843.99</ele>
        <time>2018-02-24T12:39:12Z</time>
      </trkpt>
      <trkpt lat="42.96027" lon="0.13125">
        <ele>1832.11</ele>
        <time>2018-02-24T12:39:17Z</time>
      </trkpt>
      <trkpt lat="42.96022" lon="0.13098">
        <ele>1825.35</ele>
        <time>2018-02-24T12:39:21Z</time>
      </trkpt>
      <trkpt lat="42.9602" lon="0.13073">
        <ele>1818.41</ele>
        <time>2018-02-24T12:39:24Z</time>
      </trkpt>
      <trkpt lat="42.96014" lon="0.13045">
        <ele>1811.29</ele>
        <time>2018-02-24T12:39:28Z</time>
      </trkpt>
      <trkpt lat="42.96003" lon="0.13023">
        <ele>1805.28</ele>
        <time>2018-02-24T12:39:32Z</time>
      </trkpt>
      <trkpt lat="42.95994" lon="0.12994">
        <ele>1759.95</ele>
        <time>2018-02-24T12:44:40Z</time>
      </trkpt>
      <trkpt lat="42.9599" lon="0.12967">
        <ele>1755.95</ele>
        <time>2018-02-24T12:44:44Z</time>
      </trkpt>
      <trkpt lat="42.95985" lon="0.1294">
        <ele>1752.94</ele>
        <time>2018-02-24T12:44:48Z</time>
      </trkpt>
      <trkpt lat="42.95978" lon="0.1291">
        <ele>1749.86</ele>
        <time>2018-02-24T12:44:52Z</time>
      </trkpt>
      <trkpt lat="42.95974" lon="0.12882">
        <ele>1745.95</ele>
        <time>2018-02-24T12:44:56Z</time>
      </trkpt>
      <trkpt lat="42.95974" lon="0.12853">
        <ele>1742.86</ele>
        <time>2018-02-24T12:45:00Z</time>
      </trkpt>
      <trkpt lat="42.95991" lon="0.12833">
        <ele>1737.09</ele>
        <time>2018-02-24T12:45:04Z</time>
      </trkpt>
      <trkpt lat="42.95993" lon="0.12803">
        <ele>1732.95</ele>
        <time>2018-02-24T12:45:08Z</time>
      </trkpt>
      <trkpt lat="42.95994" lon="0.12774">
        <ele>1729.86</ele>
        <time>2018-02-24T12:45:12Z</time>
      </trkpt>
      <trkpt lat="42.95998" lon="0.12744">
        <ele>1725.95</ele>
        <time>2018-02-24T12:45:16Z</time>
      </trkpt>
      <trkpt lat="42.96001" lon="0.12717">
        <ele>1720</ele>
        <time>2018-02-24T12:45:20Z</time>
      </trkpt>
      <trkpt lat="42.96021" lon="0.12708">
        <ele>1712.75</ele>
        <time>2018-02-24T12:45:24Z</time>
      </trkpt>
      <trkpt lat="42.9604" lon="0.12699">
        <ele>1694.65</ele>
        <time>2018-02-24T12:46:32Z</time>
      </trkpt>
      <trkpt lat="42.96059" lon="0.12698">
        <ele>1687.07</ele>
        <time>2018-02-24T12:46:37Z</time>
      </trkpt>
      <trkpt lat="42.96078" lon="0.12693">
        <ele>1682.04</ele>
        <time>2018-02-24T12:46:41Z</time>
      </trkpt>
      <trkpt lat="42.96097" lon="0.12684">
        <ele>1677.64</ele>
        <time>2018-02-24T12:46:47Z</time>
      </trkpt>
      <trkpt lat="42.96116" lon="0.12672">
        <ele>1672.92</ele>
        <time>2018-02-24T12:47:03Z</time>
      </trkpt>
      <trkpt lat="42.96135" lon="0.12665">
        <ele>1667.55</ele>
        <time>2018-02-24T12:47:17Z</time>
      </trkpt>
      <trkpt lat="42.96153" lon="0.12661">
        <ele>1663.65</ele>
        <time>2018-02-24T12:47:22Z</time>
      </trkpt>
      <trkpt lat="42.9617" lon="0.12653">
        <ele>1656.61</ele>
        <time>2018-02-24T12:47:34Z</time>
      </trkpt>
      <trkpt lat="42.96174" lon="0.12629">
        <ele>1646.55</ele>
        <time>2018-02-24T12:48:09Z</time>
      </trkpt>
      <trkpt lat="42.9618" lon="0.12604">
        <ele>1644.82</ele>
        <time>2018-02-24T12:48:19Z</time>
      </trkpt>
      <trkpt lat="42.96173" lon="0.12579">
        <ele>1633.74</ele>
        <time>2018-02-24T12:51:31Z</time>
      </trkpt>
      <trkpt lat="42.96171" lon="0.1255">
        <ele>1629.95</ele>
        <time>2018-02-24T12:51:35Z</time>
      </trkpt>
      <trkpt lat="42.96168" lon="0.12526">
        <ele>1628.62</ele>
        <time>2018-02-24T12:51:38Z</time>
      </trkpt>
      <trkpt lat="42.96174" lon="0.12502">
        <ele>1625.94</ele>
        <time>2018-02-24T12:51:41Z</time>
      </trkpt>
      <trkpt lat="42.96178" lon="0.12477">
        <ele>1621.98</ele>
        <time>2018-02-24T12:51:44Z</time>
      </trkpt>
      <trkpt lat="42.96187" lon="0.1245">
        <ele>1616.98</ele>
        <time>2018-02-24T12:51:48Z</time>
      </trkpt>
      <trkpt lat="42.96195" lon="0.12427">
        <ele>1613.88</ele>
        <time>2018-02-24T12:51:52Z</time>
      </trkpt>
      <trkpt lat="42.96203" lon="0.12402">
        <ele>1610.92</ele>
        <time>2018-02-24T12:51:56Z</time>
      </trkpt>
      <trkpt lat="42.96212" lon="0.12379">
        <ele>1606.94</ele>
        <time>2018-02-24T12:52:01Z</time>
      </trkpt>
      <trkpt lat="42.96222" lon="0.12352">
        <ele>1602.86</ele>
        <time>2018-02-24T12:52:06Z</time>
      </trkpt>
      <trkpt lat="42.96233" lon="0.1233">
        <ele>1598.93</ele>
        <time>2018-02-24T12:52:10Z</time>
      </trkpt>
      <trkpt lat="42.96242" lon="0.12306">
        <ele>1595.85</ele>
        <time>2018-02-24T12:52:15Z</time>
      </trkpt>
      <trkpt lat="42.96234" lon="0.12276">
        <ele>1587.97</ele>
        <time>2018-02-24T12:52:42Z</time>
      </trkpt>
      <trkpt lat="42.96227" lon="0.12252">
        <ele>1580.3</ele>
        <time>2018-02-24T12:52:47Z</time>
      </trkpt>
      <trkpt lat="42.96213" lon="0.12228">
        <ele>1570.59</ele>
        <time>2018-02-24T12:52:53Z</time>
      </trkpt>
      <trkpt lat="42.96208" lon="0.12201">
        <ele>1564.25</ele>
        <time>2018-02-24T12:52:58Z</time>
      </trkpt>
      <trkpt lat="42.9622" lon="0.12177">
        <ele>1553.56</ele>
        <time>2018-02-24T12:53:15Z</time>
      </trkpt>
      <trkpt lat="42.9621" lon="0.12153">
        <ele>1548.96</ele>
        <time>2018-02-24T12:53:19Z</time>
      </trkpt>
      <trkpt lat="42.9622" lon="0.12128">
        <ele>1542.12</ele>
        <time>2018-02-24T12:53:22Z</time>
      </trkpt>
      <trkpt lat="42.9622" lon="0.12103">
        <ele>1537.95</ele>
        <time>2018-02-24T12:53:27Z</time>
      </trkpt>
      <trkpt lat="42.96215" lon="0.12077">
        <ele>1531.86</ele>
        <time>2018-02-24T12:53:34Z</time>
      </trkpt>
      <trkpt lat="42.96197" lon="0.12067">
        <ele>1516.92</ele>
        <time>2018-02-24T12:55:44Z</time>
      </trkpt>
      <trkpt lat="42.96196" lon="0.12041">
        <ele>1503.62</ele>
        <time>2018-02-24T12:56:10Z</time>
      </trkpt>
      <trkpt lat="42.96205" lon="0.12019">
        <ele>1500.56</ele>
        <time>2018-02-24T12:56:16Z</time>
      </trkpt>
      <trkpt lat="42.96186" lon="0.12013">
        <ele>1496.94</ele>
        <time>2018-02-24T12:56:21Z</time>
      </trkpt>
      <trkpt lat="42.96167" lon="0.12025">
        <ele>1489.56</ele>
        <time>2018-02-24T12:56:52Z</time>
      </trkpt>
      <trkpt lat="42.96156" lon="0.12004">
        <ele>1477.82</ele>
        <time>2018-02-24T12:57:43Z</time>
      </trkpt>
      <trkpt lat="42.96171" lon="0.11986">
        <ele>1464.6</ele>
        <time>2018-02-24T13:00:26Z</time>
      </trkpt>
      <trkpt lat="42.96172" lon="0.11962">
        <ele>1460.94</ele>
        <time>2018-02-24T13:01:06Z</time>
      </trkpt>
      <trkpt lat="42.96169" lon="0.11937">
        <ele>1459.52</ele>
        <time>2018-02-24T13:04:05Z</time>
      </trkpt>
      <trkpt lat="42.96158" lon="0.11917">
        <ele>1453.85</ele>
        <time>2018-02-24T13:04:43Z</time>
      </trkpt>
      <trkpt lat="42.96154" lon="0.11892">
        <ele>1445.52</ele>
        <time>2018-02-24T13:05:33Z</time>
      </trkpt>
      <trkpt lat="42.96144" lon="0.11872">
        <ele>1429.62</ele>
        <time>2018-02-24T13:06:26Z</time>
      </trkpt>
      <trkpt lat="42.96137" lon="0.11849">
        <ele>1427.62</ele>
        <time>2018-02-24T13:06:50Z</time>
      </trkpt>
      <trkpt lat="42.96119" lon="0.11839">
        <ele>1407.91</ele>
        <time>2018-02-24T13:07:50Z</time>
      </trkpt>
      <trkpt lat="42.96105" lon="0.11824">
        <ele>1395.35</ele>
        <time>2018-02-24T13:08:33Z</time>
      </trkpt>
      <trkpt lat="42.9609" lon="0.11841">
        <ele>1385.86</ele>
        <time>2018-02-24T13:10:17Z</time>
      </trkpt>
      <trkpt lat="42.96078" lon="0.11859">
        <ele>1374.61</ele>
        <time>2018-02-24T13:17:47Z</time>
      </trkpt>
      <trkpt lat="42.96068" lon="0.11881">
        <ele>1372.61</ele>
        <time>2018-02-24T13:18:11Z</time>
      </trkpt>
      <trkpt lat="42.9605" lon="0.11878">
        <ele>1369.43</ele>
        <time>2018-02-24T13:18:46Z</time>
      </trkpt>
      <trkpt lat="42.96035" lon="0.11863">
        <ele>1365.31</ele>
        <time>2018-02-24T13:19:04Z</time>
      </trkpt>
      <trkpt lat="42.96017" lon="0.11858">
        <ele>1360.55</ele>
        <time>2018-02-24T13:19:23Z</time>
      </trkpt>
      <trkpt lat="42.96" lon="0.11848">
        <ele>1357.52</ele>
        <time>2018-02-24T13:19:45Z</time>
      </trkpt>
      <trkpt lat="42.95983" lon="0.1184">
        <ele>1351.55</ele>
        <time>2018-02-24T13:20:18Z</time>
      </trkpt>
      <trkpt lat="42.95969" lon="0.11823">
        <ele>1347.82</ele>
        <time>2018-02-24T13:20:35Z</time>
      </trkpt>
      <trkpt lat="42.95962" lon="0.118">
        <ele>1345.52</ele>
        <time>2018-02-24T13:20:50Z</time>
      </trkpt>
      <trkpt lat="42.95952" lon="0.11779">
        <ele>1341.61</ele>
        <time>2018-02-24T13:21:09Z</time>
      </trkpt>
      <trkpt lat="42.95937" lon="0.11765">
        <ele>1336.61</ele>
        <time>2018-02-24T13:21:32Z</time>
      </trkpt>
      <trkpt lat="42.95925" lon="0.11746">
        <ele>1332.82</ele>
        <time>2018-02-24T13:21:51Z</time>
      </trkpt>
      <trkpt lat="42.95926" lon="0.1172">
        <ele>1328.83</ele>
        <time>2018-02-24T13:22:07Z</time>
      </trkpt>
      <trkpt lat="42.95925" lon="0.11695">
        <ele>1324.76</ele>
        <time>2018-02-24T13:22:26Z</time>
      </trkpt>
      <trkpt lat="42.95931" lon="0.11671">
        <ele>1323.31</ele>
        <time>2018-02-24T13:22:43Z</time>
      </trkpt>
      <trkpt lat="42.95937" lon="0.11647">
        <ele>1322.52</ele>
        <time>2018-02-24T13:23:04Z</time>
      </trkpt>
      <trkpt lat="42.95954" lon="0.11638">
        <ele>1314.43</ele>
        <time>2018-02-24T13:23:34Z</time>
      </trkpt>
      <trkpt lat="42.95969" lon="0.11621">
        <ele>1313.76</ele>
        <time>2018-02-24T13:23:54Z</time>
      </trkpt>
      <trkpt lat="42.95987" lon="0.11614">
        <ele>1315.24</ele>
        <time>2018-02-24T13:24:14Z</time>
      </trkpt>
      <trkpt lat="42.96005" lon="0.11617">
        <ele>1315.52</ele>
        <time>2018-02-24T13:24:32Z</time>
      </trkpt>
      <trkpt lat="42.96023" lon="0.11612">
        <ele>1313.46</ele>
        <time>2018-02-24T13:24:53Z</time>
      </trkpt>
      <trkpt lat="42.96041" lon="0.11608">
        <ele>1316.5</ele>
        <time>2018-02-24T13:25:19Z</time>
      </trkpt>
      <trkpt lat="42.96059" lon="0.11611">
        <ele>1316.52</ele>
        <time>2018-02-24T13:25:37Z</time>
      </trkpt>
      <trkpt lat="42.96077" lon="0.1161">
        <ele>1317.51</ele>
        <time>2018-02-24T13:25:53Z</time>
      </trkpt>
      <trkpt lat="42.96095" lon="0.11609">
        <ele>1317.43</ele>
        <time>2018-02-24T13:26:12Z</time>
      </trkpt>
      <trkpt lat="42.96113" lon="0.11601">
        <ele>1316.82</ele>
        <time>2018-02-24T13:26:30Z</time>
      </trkpt>
      <trkpt lat="42.9613" lon="0.11591">
        <ele>1313.81</ele>
        <time>2018-02-24T13:26:46Z</time>
      </trkpt>
      <trkpt lat="42.96148" lon="0.11583">
        <ele>1314.22</ele>
        <time>2018-02-24T13:27:04Z</time>
      </trkpt>
      <trkpt lat="42.96165" lon="0.11576">
        <ele>1310.62</ele>
        <time>2018-02-24T13:27:19Z</time>
      </trkpt>
      <trkpt lat="42.96181" lon="0.11562">
        <ele>1309.59</ele>
        <time>2018-02-24T13:27:35Z</time>
      </trkpt>
      <trkpt lat="42.96193" lon="0.11543">
        <ele>1305.82</ele>
        <time>2018-02-24T13:27:54Z</time>
      </trkpt>
      <trkpt lat="42.96207" lon="0.11527">
        <ele>1302.52</ele>
        <time>2018-02-24T13:28:14Z</time>
      </trkpt>
      <trkpt lat="42.96219" lon="0.11507">
        <ele>1298.52</ele>
        <time>2018-02-24T13:28:37Z</time>
      </trkpt>
      <trkpt lat="42.96234" lon="0.11492">
        <ele>1295.61</ele>
        <time>2018-02-24T13:28:53Z</time>
      </trkpt>
      <trkpt lat="42.96251" lon="0.1148">
        <ele>1293.52</ele>
        <time>2018-02-24T13:29:10Z</time>
      </trkpt>
      <trkpt lat="42.96269" lon="0.11474">
        <ele>1291.55</ele>
        <time>2018-02-24T13:29:28Z</time>
      </trkpt>
      <trkpt lat="42.96283" lon="0.11457">
        <ele>1286.52</ele>
        <time>2018-02-24T13:29:48Z</time>
      </trkpt>
      <trkpt lat="42.96287" lon="0.11433">
        <ele>1283.52</ele>
        <time>2018-02-24T13:30:08Z</time>
      </trkpt>
      <trkpt lat="42.96289" lon="0.11408">
        <ele>1281.55</ele>
        <time>2018-02-24T13:30:25Z</time>
      </trkpt>
      <trkpt lat="42.96288" lon="0.11383">
        <ele>1278.61</ele>
        <time>2018-02-24T13:30:42Z</time>
      </trkpt>
      <trkpt lat="42.96291" lon="0.11358">
        <ele>1271.85</ele>
        <time>2018-02-24T13:31:05Z</time>
      </trkpt>
      <trkpt lat="42.9628" lon="0.11338">
        <ele>1265.83</ele>
        <time>2018-02-24T13:31:23Z</time>
      </trkpt>
      <trkpt lat="42.96283" lon="0.11313">
        <ele>1261.61</ele>
        <time>2018-02-24T13:31:39Z</time>
      </trkpt>
      <trkpt lat="42.9629" lon="0.1129">
        <ele>1255.61</ele>
        <time>2018-02-24T13:31:57Z</time>
      </trkpt>
      <trkpt lat="42.96296" lon="0.11266">
        <ele>1251.52</ele>
        <time>2018-02-24T13:32:17Z</time>
      </trkpt>
      <trkpt lat="42.96304" lon="0.11243">
        <ele>1247.55</ele>
        <time>2018-02-24T13:32:34Z</time>
      </trkpt>
      <trkpt lat="42.96315" lon="0.11222">
        <ele>1244.52</ele>
        <time>2018-02-24T13:32:52Z</time>
      </trkpt>
      <trkpt lat="42.96328" lon="0.11203">
        <ele>1243.53</ele>
        <time>2018-02-24T13:33:10Z</time>
      </trkpt>
      <trkpt lat="42.96338" lon="0.1118">
        <ele>1241.81</ele>
        <time>2018-02-24T13:33:33Z</time>
      </trkpt>
      <trkpt lat="42.96342" lon="0.11155">
        <ele>1240.49</ele>
        <time>2018-02-24T13:39:14Z</time>
      </trkpt>
      <trkpt lat="42.96338" lon="0.11131">
        <ele>1244.51</ele>
        <time>2018-02-24T13:39:39Z</time>
      </trkpt>
      <trkpt lat="42.96342" lon="0.11106">
        <ele>1246.72</ele>
        <time>2018-02-24T13:39:56Z</time>
      </trkpt>
      <trkpt lat="42.96344" lon="0.1108">
        <ele>1247.55</ele>
        <time>2018-02-24T13:40:15Z</time>
      </trkpt>
      <trkpt lat="42.96342" lon="0.11056">
        <ele>1247.52</ele>
        <time>2018-02-24T13:40:35Z</time>
      </trkpt>
      <trkpt lat="42.96342" lon="0.1103">
        <ele>1248.55</ele>
        <time>2018-02-24T13:40:54Z</time>
      </trkpt>
      <trkpt lat="42.96347" lon="0.11004">
        <ele>1248.52</ele>
        <time>2018-02-24T13:41:13Z</time>
      </trkpt>
      <trkpt lat="42.96357" lon="0.10982">
        <ele>1250.52</ele>
        <time>2018-02-24T13:41:40Z</time>
      </trkpt>
      <trkpt lat="42.96359" lon="0.10957">
        <ele>1247.61</ele>
        <time>2018-02-24T13:41:54Z</time>
      </trkpt>
      <trkpt lat="42.96361" lon="0.10932">
        <ele>1245.55</ele>
        <time>2018-02-24T13:42:15Z</time>
      </trkpt>
      <trkpt lat="42.96368" lon="0.10908">
        <ele>1248.52</ele>
        <time>2018-02-24T13:42:36Z</time>
      </trkpt>
      <trkpt lat="42.96367" lon="0.10882">
        <ele>1246.52</ele>
        <time>2018-02-24T13:42:54Z</time>
      </trkpt>
      <trkpt lat="42.96375" lon="0.10859">
        <ele>1247.43</ele>
        <time>2018-02-24T13:43:21Z</time>
      </trkpt>
      <trkpt lat="42.96379" lon="0.10834">
        <ele>1245.52</ele>
        <time>2018-02-24T13:43:39Z</time>
      </trkpt>
      <trkpt lat="42.96386" lon="0.10811">
        <ele>1243.61</ele>
        <time>2018-02-24T13:43:59Z</time>
      </trkpt>
      <trkpt lat="42.96393" lon="0.10787">
        <ele>1246.49</ele>
        <time>2018-02-24T13:44:22Z</time>
      </trkpt>
      <trkpt lat="42.96402" lon="0.10764">
        <ele>1244.53</ele>
        <time>2018-02-24T13:44:45Z</time>
      </trkpt>
      <trkpt lat="42.96409" lon="0.1074">
        <ele>1242.52</ele>
        <time>2018-02-24T13:45:07Z</time>
      </trkpt>
      <trkpt lat="42.96407" lon="0.10714">
        <ele>1238.52</ele>
        <time>2018-02-24T13:45:21Z</time>
      </trkpt>
      <trkpt lat="42.96406" lon="0.10688">
        <ele>1235.82</ele>
        <time>2018-02-24T13:45:44Z</time>
      </trkpt>
      <trkpt lat="42.96411" lon="0.10664">
        <ele>1236.55</ele>
        <time>2018-02-24T13:46:05Z</time>
      </trkpt>
      <trkpt lat="42.96413" lon="0.10638">
        <ele>1233.82</ele>
        <time>2018-02-24T13:46:31Z</time>
      </trkpt>
      <trkpt lat="42.96415" lon="0.10614">
        <ele>1230.52</ele>
        <time>2018-02-24T13:46:49Z</time>
      </trkpt>
      <trkpt lat="42.96415" lon="0.10589">
        <ele>1224.85</ele>
        <time>2018-02-24T13:47:06Z</time>
      </trkpt>
      <trkpt lat="42.96407" lon="0.10565">
        <ele>1220.61</ele>
        <time>2018-02-24T13:47:24Z</time>
      </trkpt>
      <trkpt lat="42.96398" lon="0.10541">
        <ele>1215.85</ele>
        <time>2018-02-24T13:47:41Z</time>
      </trkpt>
      <trkpt lat="42.96395" lon="0.10516">
        <ele>1217.4</ele>
        <time>2018-02-24T13:47:59Z</time>
      </trkpt>
      <trkpt lat="42.96403" lon="0.10493">
        <ele>1222.25</ele>
        <time>2018-02-24T13:48:30Z</time>
      </trkpt>
      <trkpt lat="42.96416" lon="0.10474">
        <ele>1223.52</ele>
        <time>2018-02-24T13:48:49Z</time>
      </trkpt>
      <trkpt lat="42.96426" lon="0.10454">
        <ele>1219.53</ele>
        <time>2018-02-24T13:49:11Z</time>
      </trkpt>
      <trkpt lat="42.96424" lon="0.10428">
        <ele>1215.83</ele>
        <time>2018-02-24T13:49:27Z</time>
      </trkpt>
      <trkpt lat="42.96418" lon="0.10401">
        <ele>1210.52</ele>
        <time>2018-02-24T13:49:45Z</time>
      </trkpt>
      <trkpt lat="42.9642" lon="0.10376">
        <ele>1208.55</ele>
        <time>2018-02-24T13:49:56Z</time>
      </trkpt>
      <trkpt lat="42.96433" lon="0.10356">
        <ele>1211.52</ele>
        <time>2018-02-24T13:50:13Z</time>
      </trkpt>
      <trkpt lat="42.96444" lon="0.10336">
        <ele>1209.83</ele>
        <time>2018-02-24T13:50:31Z</time>
      </trkpt>
      <trkpt lat="42.9644" lon="0.10312">
        <ele>1207.5</ele>
        <time>2018-02-24T13:50:42Z</time>
      </trkpt>
      <trkpt lat="42.9643" lon="0.10291">
        <ele>1209.22</ele>
        <time>2018-02-24T13:51:00Z</time>
      </trkpt>
      <trkpt lat="42.96422" lon="0.10269">
        <ele>1206.61</ele>
        <time>2018-02-24T13:51:26Z</time>
      </trkpt>
      <trkpt lat="42.96424" lon="0.10242">
        <ele>1204.52</ele>
        <time>2018-02-24T13:51:45Z</time>
      </trkpt>
      <trkpt lat="42.96426" lon="0.10218">
        <ele>1201.55</ele>
        <time>2018-02-24T13:52:03Z</time>
      </trkpt>
      <trkpt lat="42.96421" lon="0.10192">
        <ele>1201.31</ele>
        <time>2018-02-24T13:52:18Z</time>
      </trkpt>
      <trkpt lat="42.96414" lon="0.10169">
        <ele>1200.52</ele>
        <time>2018-02-24T13:52:32Z</time>
      </trkpt>
      <trkpt lat="42.96408" lon="0.10145">
        <ele>1201.43</ele>
        <time>2018-02-24T13:52:51Z</time>
      </trkpt>
      <trkpt lat="42.96395" lon="0.10125">
        <ele>1196.55</ele>
        <time>2018-02-24T13:53:09Z</time>
      </trkpt>
      <trkpt lat="42.96382" lon="0.10107">
        <ele>1197.22</ele>
        <time>2018-02-24T13:53:24Z</time>
      </trkpt>
      <trkpt lat="42.96368" lon="0.10091">
        <ele>1198.58</ele>
        <time>2018-02-24T13:53:39Z</time>
      </trkpt>
      <trkpt lat="42.96355" lon="0.10073">
        <ele>1199.82</ele>
        <time>2018-02-24T13:53:54Z</time>
      </trkpt>
      <trkpt lat="42.96341" lon="0.10056">
        <ele>1200.52</ele>
        <time>2018-02-24T13:54:11Z</time>
      </trkpt>
      <trkpt lat="42.96327" lon="0.10037">
        <ele>1202.24</ele>
        <time>2018-02-24T13:54:26Z</time>
      </trkpt>
      <trkpt lat="42.96311" lon="0.10025">
        <ele>1201.82</ele>
        <time>2018-02-24T13:54:43Z</time>
      </trkpt>
      <trkpt lat="42.96293" lon="0.10024">
        <ele>1203.52</ele>
        <time>2018-02-24T13:55:04Z</time>
      </trkpt>
      <trkpt lat="42.96275" lon="0.10026">
        <ele>1192.52</ele>
        <time>2018-02-24T13:55:31Z</time>
      </trkpt>
      <trkpt lat="42.96257" lon="0.10017">
        <ele>1191.91</ele>
        <time>2018-02-24T13:56:03Z</time>
      </trkpt>
      <trkpt lat="42.96253" lon="0.09993">
        <ele>1187.55</ele>
        <time>2018-02-24T13:56:17Z</time>
      </trkpt>
      <trkpt lat="42.96259" lon="0.09969">
        <ele>1184.82</ele>
        <time>2018-02-24T13:56:32Z</time>
      </trkpt>
      <trkpt lat="42.96253" lon="0.09946">
        <ele>1182.58</ele>
        <time>2018-02-24T13:56:47Z</time>
      </trkpt>
      <trkpt lat="42.9625" lon="0.09921">
        <ele>1176.12</ele>
        <time>2018-02-24T13:57:03Z</time>
      </trkpt>
      <trkpt lat="42.96262" lon="0.09902">
        <ele>1173.52</ele>
        <time>2018-02-24T13:57:14Z</time>
      </trkpt>
      <trkpt lat="42.96274" lon="0.09884">
        <ele>1169.55</ele>
        <time>2018-02-24T13:57:32Z</time>
      </trkpt>
      <trkpt lat="42.96268" lon="0.0986">
        <ele>1162.55</ele>
        <time>2018-02-24T13:57:51Z</time>
      </trkpt>
      <trkpt lat="42.96255" lon="0.09842">
        <ele>1158.61</ele>
        <time>2018-02-24T13:58:06Z</time>
      </trkpt>
      <trkpt lat="42.96243" lon="0.09824">
        <ele>1156.53</ele>
        <time>2018-02-24T13:58:20Z</time>
      </trkpt>
      <trkpt lat="42.96231" lon="0.09805">
        <ele>1154.59</ele>
        <time>2018-02-24T13:58:35Z</time>
      </trkpt>
      <trkpt lat="42.96222" lon="0.09783">
        <ele>1150.52</ele>
        <time>2018-02-24T13:58:51Z</time>
      </trkpt>
      <trkpt lat="42.96211" lon="0.09762">
        <ele>1146.55</ele>
        <time>2018-02-24T13:59:09Z</time>
      </trkpt>
      <trkpt lat="42.96197" lon="0.09744">
        <ele>1142.61</ele>
        <time>2018-02-24T13:59:28Z</time>
      </trkpt>
      <trkpt lat="42.96189" lon="0.09722">
        <ele>1135.86</ele>
        <time>2018-02-24T13:59:46Z</time>
      </trkpt>
      <trkpt lat="42.9618" lon="0.097">
        <ele>1130.82</ele>
        <time>2018-02-24T14:00:04Z</time>
      </trkpt>
      <trkpt lat="42.96174" lon="0.09676">
        <ele>1127.62</ele>
        <time>2018-02-24T14:00:20Z</time>
      </trkpt>
      <trkpt lat="42.96166" lon="0.09652">
        <ele>1124.53</ele>
        <time>2018-02-24T14:00:36Z</time>
      </trkpt>
      <trkpt lat="42.96153" lon="0.09634">
        <ele>1123.53</ele>
        <time>2018-02-24T14:00:54Z</time>
      </trkpt>
      <trkpt lat="42.9614" lon="0.09616">
        <ele>1121.52</ele>
        <time>2018-02-24T14:01:13Z</time>
      </trkpt>
      <trkpt lat="42.96129" lon="0.09597">
        <ele>1112.62</ele>
        <time>2018-02-24T14:01:31Z</time>
      </trkpt>
      <trkpt lat="42.96135" lon="0.09572">
        <ele>1110.52</ele>
        <time>2018-02-24T14:01:46Z</time>
      </trkpt>
      <trkpt lat="42.96146" lon="0.09549">
        <ele>1111.51</ele>
        <time>2018-02-24T14:02:06Z</time>
      </trkpt>
      <trkpt lat="42.96147" lon="0.09524">
        <ele>1109.49</ele>
        <time>2018-02-24T14:02:30Z</time>
      </trkpt>
      <trkpt lat="42.96143" lon="0.095">
        <ele>1105.53</ele>
        <time>2018-02-24T14:02:51Z</time>
      </trkpt>
      <trkpt lat="42.96149" lon="0.09476">
        <ele>1099.55</ele>
        <time>2018-02-24T14:03:13Z</time>
      </trkpt>
      <trkpt lat="42.96143" lon="0.09452">
        <ele>1092.83</ele>
        <time>2018-02-24T14:03:34Z</time>
      </trkpt>
      <trkpt lat="42.96136" lon="0.09427">
        <ele>1084.95</ele>
        <time>2018-02-24T14:03:52Z</time>
      </trkpt>
      <trkpt lat="42.96127" lon="0.09404">
        <ele>1083.23</ele>
        <time>2018-02-24T14:04:09Z</time>
      </trkpt>
      <trkpt lat="42.96124" lon="0.09378">
        <ele>1077.82</ele>
        <time>2018-02-24T14:04:26Z</time>
      </trkpt>
      <trkpt lat="42.96125" lon="0.09353">
        <ele>1075.55</ele>
        <time>2018-02-24T14:04:43Z</time>
      </trkpt>
      <trkpt lat="42.96123" lon="0.09327">
        <ele>1074.82</ele>
        <time>2018-02-24T14:04:59Z</time>
      </trkpt>
      <trkpt lat="42.96119" lon="0.09303">
        <ele>1070.52</ele>
        <time>2018-02-24T14:05:15Z</time>
      </trkpt>
      <trkpt lat="42.96118" lon="0.09277">
        <ele>1067.52</ele>
        <time>2018-02-24T14:05:32Z</time>
      </trkpt>
      <trkpt lat="42.96117" lon="0.09252">
        <ele>1065.43</ele>
        <time>2018-02-24T14:06:11Z</time>
      </trkpt>
      <trkpt lat="42.96118" lon="0.09226">
        <ele>1062.53</ele>
        <time>2018-02-24T14:06:28Z</time>
      </trkpt>
      <trkpt lat="42.96117" lon="0.09201">
        <ele>1062.52</ele>
        <time>2018-02-24T14:06:50Z</time>
      </trkpt>
      <trkpt lat="42.96107" lon="0.0918">
        <ele>1063.52</ele>
        <time>2018-02-24T14:07:08Z</time>
      </trkpt>
      <trkpt lat="42.96098" lon="0.09157">
        <ele>1062.55</ele>
        <time>2018-02-24T14:07:27Z</time>
      </trkpt>
      <trkpt lat="42.96089" lon="0.09136">
        <ele>1064.6</ele>
        <time>2018-02-24T14:07:42Z</time>
      </trkpt>
      <trkpt lat="42.96083" lon="0.09112">
        <ele>1066.49</ele>
        <time>2018-02-24T14:07:58Z</time>
      </trkpt>
      <trkpt lat="42.9608" lon="0.09086">
        <ele>1067.52</ele>
        <time>2018-02-24T14:08:19Z</time>
      </trkpt>
      <trkpt lat="42.96079" lon="0.09062">
        <ele>1066.52</ele>
        <time>2018-02-24T14:08:33Z</time>
      </trkpt>
      <trkpt lat="42.96085" lon="0.09037">
        <ele>1065.29</ele>
        <time>2018-02-24T14:08:51Z</time>
      </trkpt>
      <trkpt lat="42.96091" lon="0.09013">
        <ele>1066.31</ele>
        <time>2018-02-24T14:09:07Z</time>
      </trkpt>
      <trkpt lat="42.96105" lon="0.08995">
        <ele>1062.61</ele>
        <time>2018-02-24T14:09:27Z</time>
      </trkpt>
      <trkpt lat="42.9612" lon="0.0898">
        <ele>1063.52</ele>
        <time>2018-02-24T14:09:41Z</time>
      </trkpt>
      <trkpt lat="42.96132" lon="0.08962">
        <ele>1063.51</ele>
        <time>2018-02-24T14:09:55Z</time>
      </trkpt>
      <trkpt lat="42.96147" lon="0.08944">
        <ele>1063.43</ele>
        <time>2018-02-24T14:10:10Z</time>
      </trkpt>
      <trkpt lat="42.96166" lon="0.08939">
        <ele>1065.52</ele>
        <time>2018-02-24T14:10:39Z</time>
      </trkpt>
      <trkpt lat="42.96184" lon="0.08944">
        <ele>1066.55</ele>
        <time>2018-02-24T14:10:53Z</time>
      </trkpt>
      <trkpt lat="42.96204" lon="0.0895">
        <ele>1069.51</ele>
        <time>2018-02-24T14:11:15Z</time>
      </trkpt>
      <trkpt lat="42.96223" lon="0.08953">
        <ele>1067.88</ele>
        <time>2018-02-24T14:11:32Z</time>
      </trkpt>
      <trkpt lat="42.96223" lon="0.08928">
        <ele>1063.56</ele>
        <time>2018-02-24T14:11:49Z</time>
      </trkpt>
      <trkpt lat="42.96217" lon="0.08904">
        <ele>1058.13</ele>
        <time>2018-02-24T14:12:08Z</time>
      </trkpt>
    </trkseg>
  </trk>
</gpx>